»·PEaware :: N96105 KYKM-KBFI

N96105 :: KYKM-KBFI

FLIGHT INFORMATION

Flight Status: Arrived
Operator: Privately registered:
United States
More flights under this callsign
Pilot: Tyrone W. (28901)
Aircraft: MOONEY M-20K/M ENCORE BRAVO
(M20T)
More flights by this aircraft type
Origin: KYKM Yakima Air Term/Mcallister
United States
Destination: KBFI Boeing Field/King Co Intl
United States
More flights between these airports :: More routes between these airports
Route: +YKM7 TITON V4 SEA
File this flight plan on PilotEdge
Remarks:
Altitude:
(Current/Filed)
10,000ft
Speed:
(Current/Filed)
140kts
Departed: 11-Apr-20 05:50 PM
Arrived: 11-Apr-20 06:42 PM
Distance/Time
Traveled:
92nm/0:51
Distance/Time
To Go:
Arrived

Flight Plot

Page will automatically refresh every two minutes.


Map Options




Map Legend


Flown Route
Filed Route
Departure Airport
Arrival Airport
Navaid (VOR, NDB)
Fix

Horizontal Profiles

Position Reports

Time Latitude Longitude Heading Altitude Ground
Speed
11-Apr-20 17:40 46.569880 -120.541735 358 1098ft 0kts
11-Apr-20 17:41 46.569880 -120.541735 358 1098ft 0kts
11-Apr-20 17:43 46.569880 -120.541735 358 1098ft 0kts
11-Apr-20 17:44 46.569880 -120.541735 358 1098ft 0kts
11-Apr-20 17:45 46.569844 -120.542235 229 1098ft 0kts
11-Apr-20 17:46 46.570161 -120.546959 288 1098ft 2kts
11-Apr-20 17:47 46.571492 -120.552396 291 1098ft 20kts
11-Apr-20 17:48 46.572934 -120.558808 222 1098ft 0kts
11-Apr-20 17:49 46.572857 -120.558909 222 1098ft 10kts
11-Apr-20 17:50 46.567733 -120.540597 110 1315ft 91kts
11-Apr-20 17:51 46.567474 -120.506353 87 2292ft 72kts
11-Apr-20 17:52 46.568110 -120.468700 84 3000ft 103kts
11-Apr-20 17:53 46.560721 -120.436413 176 4045ft 101kts
11-Apr-20 17:54 46.557403 -120.464210 339 5058ft 96kts
11-Apr-20 17:55 46.580850 -120.478086 324 6069ft 90kts
11-Apr-20 17:56 46.597730 -120.503319 306 7016ft 87kts
11-Apr-20 17:57 46.611526 -120.531762 299 7902ft 89kts
11-Apr-20 17:58 46.627155 -120.559766 300 8787ft 90kts
11-Apr-20 17:59 46.641208 -120.589461 297 9644ft 91kts
11-Apr-20 18:00 46.656814 -120.622250 298 9999ft 120kts
11-Apr-20 18:01 46.680327 -120.665234 306 10042ft 146kts
11-Apr-20 18:01 46.703021 -120.703509 300 10072ft 151kts
11-Apr-20 18:02 46.723629 -120.757704 292 9944ft 161kts
11-Apr-20 18:04 46.745632 -120.824216 297 9991ft 156kts
11-Apr-20 18:04 46.768486 -120.865507 309 9982ft 158kts
11-Apr-20 18:05 46.800446 -120.910298 312 9971ft 159kts
11-Apr-20 18:06 46.828397 -120.959121 298 9967ft 155kts
11-Apr-20 18:08 46.858141 -121.019319 305 9948ft 157kts
11-Apr-20 18:08 46.881669 -121.059990 303 9941ft 157kts
11-Apr-20 18:09 46.906390 -121.112149 301 9944ft 156kts
11-Apr-20 18:10 46.932006 -121.163769 299 9952ft 156kts
11-Apr-20 18:11 46.955591 -121.216896 298 9959ft 155kts
11-Apr-20 18:12 46.978725 -121.270427 298 9968ft 155kts
11-Apr-20 18:13 47.001850 -121.324219 298 9978ft 155kts
11-Apr-20 18:14 47.024877 -121.377863 298 9989ft 155kts
11-Apr-20 18:15 47.047971 -121.431709 297 10000ft 155kts
11-Apr-20 18:16 47.065412 -121.489131 287 10007ft 154kts
11-Apr-20 18:17 47.081699 -121.547231 291 10022ft 154kts
11-Apr-20 18:18 47.101264 -121.603672 299 10016ft 156kts
11-Apr-20 18:19 47.127853 -121.654276 305 10046ft 157kts
11-Apr-20 18:20 47.156401 -121.702901 306 10061ft 157kts
11-Apr-20 18:21 47.185458 -121.751436 306 10068ft 157kts
11-Apr-20 18:22 47.211754 -121.801295 276 9937ft 147kts
11-Apr-20 18:23 47.223264 -121.851216 295 9475ft 119kts
11-Apr-20 18:24 47.233914 -121.895877 279 8937ft 109kts
11-Apr-20 18:25 47.239930 -121.938074 283 8386ft 103kts
11-Apr-20 18:26 47.248505 -121.978362 284 7836ft 102kts
11-Apr-20 18:27 47.257136 -122.018140 284 7286ft 101kts
11-Apr-20 18:28 47.265700 -122.057598 284 6739ft 100kts
11-Apr-20 18:29 47.274031 -122.096770 285 6155ft 98kts
11-Apr-20 18:30 47.281212 -122.136494 285 5424ft 102kts
11-Apr-20 18:31 47.287614 -122.178209 284 4704ft 106kts
11-Apr-20 18:32 47.305444 -122.201793 28 3955ft 111kts
11-Apr-20 18:33 47.334400 -122.187752 24 3288ft 112kts
11-Apr-20 18:34 47.362438 -122.168888 24 2656ft 110kts
11-Apr-20 18:35 47.391535 -122.173353 324 2150ft 108kts
11-Apr-20 18:36 47.412377 -122.205053 320 1915ft 102kts
11-Apr-20 18:37 47.437330 -122.224206 331 1833ft 98kts
11-Apr-20 18:38 47.460023 -122.244467 326 1540ft 91kts
11-Apr-20 18:39 47.482836 -122.262327 328 972ft 92kts
11-Apr-20 18:40 47.504508 -122.281156 330 406ft 81kts
11-Apr-20 18:41 47.521443 -122.296026 200 21ft 4kts

Navigation Log

Ident Type
Flight plan parsing failed, navigation log unavailable